createdAt,value
2018-10-17T00:00:56.415Z,17.50
2018-10-17T00:01:56.689Z,19.40
2018-10-17T00:02:56.995Z,21.60
2018-10-17T00:03:57.258Z,20.90
2018-10-17T00:04:57.639Z,20.20
2018-10-17T00:05:57.885Z,20.30
2018-10-17T00:06:58.198Z,20.10
2018-10-17T00:07:58.468Z,20.70
2018-10-17T00:08:58.828Z,21.40
2018-10-17T00:09:59.092Z,20.40
2018-10-17T00:10:59.504Z,21.40
2018-10-17T00:11:59.776Z,21.40
2018-10-17T00:13:00.097Z,21.30
2018-10-17T00:14:00.307Z,22.60
2018-10-17T00:15:00.562Z,21.50
2018-10-17T00:16:00.833Z,22.00
2018-10-17T00:17:01.144Z,23.00
2018-10-17T00:18:01.868Z,22.90
2018-10-17T00:19:01.956Z,20.70
2018-10-17T00:20:01.846Z,21.80
2018-10-17T00:21:01.988Z,21.80
2018-10-17T00:22:02.370Z,21.20
2018-10-17T00:23:02.561Z,20.20
2018-10-17T00:24:02.521Z,20.60
2018-10-17T00:25:02.887Z,22.50
2018-10-17T00:26:03.048Z,22.20
2018-10-17T00:27:03.667Z,21.60
2018-10-17T00:28:03.786Z,21.10
2018-10-17T00:29:04.059Z,21.90
2018-10-17T00:30:04.142Z,22.40
2018-10-17T00:31:04.303Z,21.60
2018-10-17T00:32:04.432Z,21.70
2018-10-17T00:33:04.742Z,21.30
2018-10-17T00:34:05.009Z,21.20
2018-10-17T00:35:05.223Z,21.70
2018-10-17T00:36:05.502Z,21.70
2018-10-17T00:37:05.671Z,22.50
2018-10-17T00:38:05.828Z,21.50
2018-10-17T00:39:05.966Z,22.00
2018-10-17T00:40:06.491Z,18.10
2018-10-17T00:41:06.723Z,20.70
2018-10-17T00:42:06.784Z,20.00
2018-10-17T00:43:07.000Z,21.30
2018-10-17T00:44:07.054Z,20.70
2018-10-17T00:45:07.175Z,21.50
2018-10-17T00:46:07.412Z,22.00
2018-10-17T00:47:07.508Z,22.00
2018-10-17T00:48:07.533Z,21.10
2018-10-17T00:49:07.599Z,22.50
2018-10-17T00:50:07.692Z,24.60
2018-10-17T00:51:07.701Z,23.50
2018-10-17T00:52:07.571Z,23.40
2018-10-17T00:53:08.210Z,24.30
2018-10-17T00:54:08.264Z,23.80
2018-10-17T00:55:08.390Z,24.30
2018-10-17T00:56:08.384Z,25.60
2018-10-17T00:58:08.412Z,24.80
2018-10-17T00:59:08.572Z,25.10
2018-10-17T01:00:08.617Z,25.20
2018-10-17T01:01:08.862Z,25.20
2018-10-17T01:02:08.807Z,25.20
2018-10-17T01:03:08.865Z,23.50
2018-10-17T01:04:08.872Z,25.80
2018-10-17T01:05:09.147Z,26.30
2018-10-17T01:06:08.966Z,24.20
2018-10-17T01:07:09.315Z,24.00
2018-10-17T01:08:09.524Z,24.80
2018-10-17T01:09:09.792Z,26.90
2018-10-17T01:10:10.125Z,25.80
2018-10-17T01:11:10.489Z,25.10
2018-10-17T01:12:10.697Z,24.50
2018-10-17T01:13:11.136Z,26.70
2018-10-17T01:14:11.275Z,23.90
2018-10-17T01:15:11.544Z,23.70
2018-10-17T01:16:11.903Z,23.60
2018-10-17T01:17:12.248Z,24.70
2018-10-17T01:18:12.402Z,24.70
2018-10-17T01:19:12.812Z,28.10
2018-10-17T01:20:12.956Z,25.20
2018-10-17T01:21:13.231Z,27.70
2018-10-17T01:22:13.507Z,27.20
2018-10-17T01:23:13.850Z,26.30
2018-10-17T01:24:14.103Z,25.70
2018-10-17T01:25:14.780Z,26.10
2018-10-17T01:26:14.572Z,28.00
2018-10-17T01:27:14.882Z,26.40
2018-10-17T01:28:15.211Z,27.50
2018-10-17T01:29:15.575Z,27.80
2018-10-17T01:30:16.071Z,27.60
2018-10-17T01:31:15.941Z,29.50
2018-10-17T01:32:16.104Z,26.40
2018-10-17T01:33:16.355Z,27.60
2018-10-17T01:34:16.615Z,26.70
2018-10-17T01:35:17.097Z,26.90
2018-10-17T01:36:17.367Z,27.60
2018-10-17T01:37:17.771Z,28.50
2018-10-17T01:38:18.097Z,27.60
2018-10-17T01:39:18.649Z,27.20
2018-10-17T01:40:18.789Z,27.30
2018-10-17T01:41:18.979Z,26.00
2018-10-17T01:42:18.937Z,25.70
2018-10-17T01:43:19.297Z,25.20
2018-10-17T01:44:19.249Z,24.90
2018-10-17T01:45:19.379Z,24.40
2018-10-17T01:46:19.532Z,25.80
2018-10-17T01:47:19.729Z,24.90
2018-10-17T01:48:19.869Z,25.70
2018-10-17T01:49:19.973Z,27.80
2018-10-17T01:50:20.167Z,26.20
2018-10-17T01:51:20.329Z,29.50
2018-10-17T01:52:20.484Z,27.10
2018-10-17T01:53:20.652Z,27.00
2018-10-17T01:54:20.809Z,27.00
2018-10-17T01:55:20.942Z,25.90
2018-10-17T01:56:20.972Z,24.40
2018-10-17T01:57:21.125Z,24.60
2018-10-17T01:58:21.213Z,23.70
2018-10-17T01:59:21.335Z,25.90
2018-10-17T02:00:21.376Z,24.40
2018-10-17T02:01:21.513Z,23.30
2018-10-17T02:02:21.671Z,25.60
2018-10-17T02:03:21.751Z,28.10
2018-10-17T02:04:21.938Z,28.90
2018-10-17T02:05:22.053Z,26.70
2018-10-17T02:06:22.138Z,29.50
2018-10-17T02:07:22.166Z,27.90
2018-10-17T02:08:22.266Z,26.40
2018-10-17T02:09:22.345Z,24.20
2018-10-17T02:10:22.399Z,29.30
2018-10-17T02:11:22.495Z,31.30
2018-10-17T02:12:22.569Z,29.50
2018-10-17T02:13:22.644Z,29.70
2018-10-17T02:14:22.719Z,29.20
2018-10-17T02:15:22.802Z,27.40
2018-10-17T02:16:22.873Z,28.70
2018-10-17T02:17:22.960Z,32.50
2018-10-17T02:18:23.014Z,29.60
2018-10-17T02:19:23.059Z,28.70
2018-10-17T02:21:22.847Z,31.90
2018-10-17T02:22:23.412Z,31.70
2018-10-17T02:23:23.474Z,30.80
2018-10-17T02:24:23.655Z,26.80
2018-10-17T02:25:23.734Z,27.80
2018-10-17T02:26:23.824Z,27.80
2018-10-17T02:27:23.836Z,27.50
2018-10-17T02:28:24.161Z,28.70
2018-10-17T02:29:24.441Z,30.50
2018-10-17T02:30:24.744Z,28.30
2018-10-17T02:31:25.002Z,33.20
2018-10-17T02:32:25.348Z,28.00
2018-10-17T02:33:25.532Z,30.40
2018-10-17T02:34:25.807Z,29.60
2018-10-17T02:35:26.297Z,35.60
2018-10-17T02:36:26.677Z,35.20
2018-10-17T02:37:26.954Z,32.50
2018-10-17T02:38:27.229Z,34.00
2018-10-17T02:39:27.526Z,31.50
2018-10-17T02:40:27.754Z,30.00
2018-10-17T02:41:28.038Z,33.00
2018-10-17T02:42:28.552Z,33.40
2018-10-17T02:43:28.837Z,32.90
2018-10-17T02:44:29.242Z,35.00
2018-10-17T02:45:29.503Z,33.10
2018-10-17T02:46:29.757Z,35.80
2018-10-17T02:47:30.024Z,34.00
2018-10-17T02:48:30.333Z,35.00
2018-10-17T02:49:30.606Z,32.30
2018-10-17T02:50:30.875Z,32.10
2018-10-17T02:51:31.129Z,39.60
2018-10-17T02:52:31.709Z,33.50
2018-10-17T02:53:31.842Z,32.60
2018-10-17T02:54:32.230Z,32.30
2018-10-17T02:55:32.582Z,31.60
2018-10-17T02:56:32.914Z,32.40
2018-10-17T02:57:33.453Z,34.70
2018-10-17T02:58:33.936Z,31.50
2018-10-17T02:59:34.083Z,32.20
2018-10-17T03:00:34.169Z,37.60
2018-10-17T03:01:34.324Z,34.60
2018-10-17T03:02:34.387Z,37.90
2018-10-17T03:03:34.486Z,33.00
2018-10-17T03:04:34.684Z,35.60
2018-10-17T03:05:34.860Z,37.50
2018-10-17T03:06:34.994Z,36.10
2018-10-17T03:07:35.112Z,38.60
2018-10-17T03:08:35.269Z,35.30
2018-10-17T03:09:35.361Z,34.10
2018-10-17T03:10:35.457Z,33.80
2018-10-17T03:11:35.586Z,34.50
2018-10-17T03:12:35.754Z,36.50
2018-10-17T03:13:35.902Z,39.30
2018-10-17T03:14:36.044Z,34.10
2018-10-17T03:15:36.167Z,34.90
2018-10-17T03:16:36.231Z,34.30
2018-10-17T03:17:36.387Z,34.70
2018-10-17T03:18:36.484Z,39.30
2018-10-17T03:19:36.544Z,35.30
2018-10-17T03:20:36.687Z,36.90
2018-10-17T03:21:36.803Z,35.20
2018-10-17T03:22:36.911Z,34.70
2018-10-17T03:23:36.970Z,38.20
2018-10-17T03:24:37.013Z,35.70
2018-10-17T03:25:37.112Z,34.90
2018-10-17T03:26:37.183Z,33.80
2018-10-17T03:27:37.336Z,34.10
2018-10-17T03:28:37.374Z,32.90
2018-10-17T03:29:37.460Z,32.60
2018-10-17T03:30:37.531Z,34.60
2018-10-17T03:31:37.619Z,37.00
2018-10-17T03:32:37.704Z,39.60
2018-10-17T03:33:37.789Z,36.40
2018-10-17T03:34:37.867Z,36.00
2018-10-17T03:35:37.983Z,35.10
2018-10-17T03:36:37.990Z,34.10
2018-10-17T03:37:37.762Z,36.00
2018-10-17T03:38:38.354Z,36.10
2018-10-17T03:39:38.434Z,36.90
2018-10-17T03:40:38.514Z,39.60
2018-10-17T03:41:38.608Z,37.90
2018-10-17T03:42:38.677Z,38.80
2018-10-17T03:43:38.765Z,38.60
2018-10-17T03:44:38.852Z,35.80
2018-10-17T03:45:38.923Z,37.40
2018-10-17T03:46:38.971Z,39.90
2018-10-17T03:47:38.974Z,39.60
2018-10-17T03:48:39.046Z,37.30
2018-10-17T03:49:39.184Z,34.70
2018-10-17T03:50:39.245Z,31.60
2018-10-17T03:51:39.262Z,32.50
2018-10-17T03:52:39.497Z,32.00
2018-10-17T03:53:39.870Z,34.00
2018-10-17T03:54:40.223Z,36.40
2018-10-17T03:55:40.514Z,32.70
2018-10-17T03:56:41.237Z,30.10
2018-10-17T03:57:40.968Z,31.50
2018-10-17T03:58:41.232Z,30.10
2018-10-17T03:59:41.635Z,31.20
2018-10-17T04:00:41.781Z,30.70
2018-10-17T04:01:42.051Z,29.90
2018-10-17T04:02:42.326Z,31.40
2018-10-17T04:03:42.605Z,33.70
2018-10-17T04:04:42.867Z,33.60
2018-10-17T04:05:43.126Z,36.50
2018-10-17T04:06:43.423Z,31.30
2018-10-17T04:07:43.738Z,35.80
2018-10-17T04:08:44.019Z,34.00
2018-10-17T04:09:44.268Z,36.00
2018-10-17T04:10:44.517Z,41.00
2018-10-17T04:11:44.777Z,38.30
2018-10-17T04:12:45.056Z,37.90
2018-10-17T04:13:45.334Z,34.00
2018-10-17T04:14:45.608Z,33.90
2018-10-17T04:15:45.913Z,32.20
2018-10-17T04:16:46.094Z,37.20
2018-10-17T04:17:46.350Z,40.60
2018-10-17T04:18:46.625Z,38.10
2018-10-17T04:19:46.904Z,44.90
2018-10-17T04:20:47.176Z,43.40
2018-10-17T04:21:47.640Z,41.80
2018-10-17T04:22:47.965Z,37.70
2018-10-17T04:23:48.381Z,40.50
2018-10-17T04:24:48.419Z,40.80
2018-10-17T04:25:48.443Z,38.80
2018-10-17T04:26:48.561Z,35.80
2018-10-17T04:27:48.673Z,39.00
2018-10-17T04:28:49.217Z,40.30
2018-10-17T04:29:49.364Z,37.60
2018-10-17T04:30:49.513Z,36.80
2018-10-17T04:31:49.385Z,41.00
2018-10-17T04:32:50.057Z,39.40
2018-10-17T04:33:50.236Z,36.80
2018-10-17T04:34:50.394Z,37.70
2018-10-17T04:35:50.603Z,36.50
2018-10-17T04:36:50.832Z,33.80
2018-10-17T04:37:50.940Z,39.10
2018-10-17T04:38:51.069Z,36.60
2018-10-17T04:39:51.176Z,39.50
2018-10-17T04:40:51.254Z,39.10
2018-10-17T04:41:51.426Z,43.20
2018-10-17T04:42:51.519Z,37.50
2018-10-17T04:43:51.515Z,40.80
2018-10-17T04:44:51.631Z,40.00
2018-10-17T04:45:51.772Z,38.30
2018-10-17T04:46:51.937Z,39.20
2018-10-17T04:47:52.003Z,45.00
2018-10-17T04:48:52.144Z,43.10
2018-10-17T04:49:52.233Z,46.00
2018-10-17T04:50:52.320Z,47.20
2018-10-17T04:51:52.408Z,44.60
2018-10-17T04:52:52.478Z,47.80
2018-10-17T04:53:52.550Z,41.50
2018-10-17T04:54:52.597Z,38.60
2018-10-17T04:55:52.635Z,36.50
2018-10-17T04:56:52.682Z,40.70
2018-10-17T04:57:52.741Z,44.50
2018-10-17T04:58:52.825Z,49.00
2018-10-17T04:59:52.871Z,47.20
2018-10-17T05:00:52.662Z,53.10
2018-10-17T05:01:53.239Z,49.60
2018-10-17T05:02:53.287Z,54.60
2018-10-17T05:03:53.350Z,64.90
2018-10-17T05:04:53.490Z,67.50
2018-10-17T05:05:53.501Z,58.90
2018-10-17T05:06:53.741Z,44.90
2018-10-17T05:07:53.659Z,42.10
2018-10-17T05:08:53.750Z,40.40
2018-10-17T05:09:53.826Z,39.80
2018-10-17T05:10:53.897Z,34.70
2018-10-17T05:11:53.968Z,37.90
2018-10-17T05:12:54.109Z,45.10
2018-10-17T05:13:54.164Z,52.90
2018-10-17T05:14:54.134Z,44.50
2018-10-17T05:15:54.512Z,34.10
2018-10-17T05:16:54.829Z,34.60
2018-10-17T05:17:55.043Z,54.00
2018-10-17T05:18:55.353Z,61.30
2018-10-17T05:19:55.613Z,44.20
2018-10-17T05:20:56.101Z,42.20
2018-10-17T05:21:56.372Z,45.20
2018-10-17T05:22:56.701Z,46.10
2018-10-17T05:23:56.928Z,48.30
2018-10-17T05:24:57.296Z,55.70
2018-10-17T05:25:57.520Z,60.20
2018-10-17T05:26:57.776Z,70.00
2018-10-17T05:27:58.030Z,56.10
2018-10-17T05:28:58.356Z,51.80
2018-10-17T05:29:58.605Z,65.10
2018-10-17T05:30:58.933Z,68.30
2018-10-17T05:31:59.495Z,64.50
2018-10-17T05:32:59.363Z,60.70
2018-10-17T05:33:59.684Z,68.50
2018-10-17T05:34:59.970Z,76.40
2018-10-17T05:36:00.226Z,82.00
2018-10-17T05:37:00.615Z,60.20
2018-10-17T05:38:00.834Z,68.50
2018-10-17T05:39:00.849Z,70.80
2018-10-17T05:40:01.196Z,71.10
2018-10-17T05:41:01.738Z,69.50
2018-10-17T05:42:02.360Z,74.10
2018-10-17T05:43:02.456Z,67.40
2018-10-17T05:44:02.663Z,68.20
2018-10-17T05:45:02.854Z,56.00
2018-10-17T05:46:02.681Z,54.90
2018-10-17T05:47:03.175Z,57.40
2018-10-17T05:48:03.709Z,58.70
2018-10-17T05:49:03.851Z,57.40
2018-10-17T05:50:03.983Z,53.40
2018-10-17T05:51:04.270Z,60.10
2018-10-17T05:52:04.381Z,62.70
2018-10-17T05:53:04.516Z,63.00
2018-10-17T05:54:04.628Z,62.00
2018-10-17T05:55:04.829Z,60.70
2018-10-17T05:56:04.918Z,60.00
2018-10-17T05:57:05.038Z,57.30
2018-10-17T05:58:05.272Z,55.20
2018-10-17T05:59:05.426Z,49.90
2018-10-17T06:00:05.538Z,52.90
2018-10-17T06:01:05.933Z,59.10
2018-10-17T06:02:06.101Z,65.70
2018-10-17T06:03:06.219Z,66.30
2018-10-17T06:04:06.296Z,59.20
2018-10-17T06:05:06.506Z,48.90
2018-10-17T06:06:06.565Z,43.50
2018-10-17T06:07:06.659Z,39.90
2018-10-17T06:08:06.736Z,37.70
2018-10-17T06:09:06.803Z,44.40
2018-10-17T06:10:06.994Z,41.50
2018-10-17T06:11:07.233Z,45.30
2018-10-17T06:12:06.868Z,61.30
2018-10-17T06:13:07.461Z,64.50
2018-10-17T06:14:07.487Z,57.00
2018-10-17T06:16:07.671Z,63.70
2018-10-17T06:17:07.755Z,52.50
2018-10-17T06:18:07.770Z,56.60
2018-10-17T06:19:07.871Z,44.40
2018-10-17T06:20:07.885Z,45.30
2018-10-17T06:21:07.658Z,51.60
2018-10-17T06:23:08.288Z,63.10
2018-10-17T06:24:08.321Z,60.40
2018-10-17T06:25:08.443Z,61.50
2018-10-17T06:26:08.111Z,61.60
2018-10-17T06:27:08.624Z,58.80
2018-10-17T06:28:08.511Z,50.60
2018-10-17T06:29:09.165Z,49.30
2018-10-17T06:30:09.214Z,51.70
2018-10-17T06:31:09.402Z,45.60
2018-10-17T06:32:09.374Z,42.90
2018-10-17T06:33:09.245Z,39.40
2018-10-17T06:34:09.723Z,37.00
2018-10-17T06:35:10.109Z,35.20
2018-10-17T06:36:10.404Z,37.00
2018-10-17T06:37:10.673Z,40.40
2018-10-17T06:38:10.908Z,36.60
2018-10-17T06:39:11.351Z,37.50
2018-10-17T06:40:11.613Z,42.10
2018-10-17T06:41:11.995Z,42.40
2018-10-17T06:42:11.981Z,44.90
2018-10-17T06:43:12.323Z,43.00
2018-10-17T06:44:12.614Z,50.30
2018-10-17T06:45:12.860Z,42.90
2018-10-17T06:46:13.117Z,52.30
2018-10-17T06:47:13.772Z,48.20
2018-10-17T06:48:13.499Z,41.00
2018-10-17T06:49:13.952Z,43.10
2018-10-17T06:50:14.310Z,43.90
2018-10-17T06:51:14.603Z,46.40
2018-10-17T06:52:14.853Z,42.40
2018-10-17T06:53:15.254Z,43.30
2018-10-17T06:54:15.414Z,45.70
2018-10-17T06:55:16.146Z,49.50
2018-10-17T06:56:15.903Z,43.10
2018-10-17T06:57:16.187Z,46.30
2018-10-17T06:58:16.633Z,45.10
2018-10-17T06:59:16.957Z,43.10
2018-10-17T07:00:17.556Z,53.30
2018-10-17T07:01:17.387Z,38.80
2018-10-17T07:02:18.023Z,43.90
2018-10-17T07:03:17.717Z,42.80
2018-10-17T07:04:18.236Z,41.50
2018-10-17T07:05:18.843Z,38.50
2018-10-17T07:06:18.987Z,40.30
2018-10-17T07:07:19.239Z,39.40
2018-10-17T07:08:19.248Z,44.20
2018-10-17T07:09:19.452Z,38.10
2018-10-17T07:10:19.571Z,40.10
2018-10-17T07:11:20.238Z,35.40
2018-10-17T07:12:20.208Z,36.40
2018-10-17T07:13:20.549Z,35.70
2018-10-17T07:14:20.785Z,39.10
2018-10-17T07:15:21.092Z,34.30
2018-10-17T07:16:20.827Z,38.30
2018-10-17T07:17:21.002Z,39.10
2018-10-17T07:18:21.169Z,40.30
2018-10-17T07:19:21.297Z,35.10
2018-10-17T07:20:21.404Z,34.30
2018-10-17T07:21:21.488Z,37.20
2018-10-17T07:22:21.605Z,35.30
2018-10-17T07:23:22.078Z,33.00
2018-10-17T07:24:22.210Z,32.90
2018-10-17T07:25:22.365Z,35.90
2018-10-17T07:26:22.497Z,40.30
2018-10-17T07:27:22.584Z,33.60
2018-10-17T07:28:22.665Z,33.90
2018-10-17T07:29:22.893Z,35.30
2018-10-17T07:30:22.847Z,36.80
2018-10-17T07:31:22.771Z,33.80
2018-10-17T07:32:23.389Z,36.70
2018-10-17T07:33:23.501Z,38.80
2018-10-17T07:34:23.693Z,36.90
2018-10-17T07:35:23.862Z,34.70
2018-10-17T07:36:24.128Z,31.40
2018-10-17T07:37:24.158Z,29.60
2018-10-17T07:38:24.268Z,41.50
2018-10-17T07:40:24.451Z,28.70
2018-10-17T07:41:24.460Z,30.00
2018-10-17T07:42:24.729Z,32.10
2018-10-17T07:43:24.996Z,31.90
2018-10-17T07:44:25.261Z,31.40
2018-10-17T07:45:25.561Z,33.60
2018-10-17T07:46:25.834Z,28.20
2018-10-17T07:47:26.105Z,29.00
2018-10-17T07:48:26.430Z,30.00
2018-10-17T07:49:26.722Z,28.80
2018-10-17T07:50:27.096Z,33.50
2018-10-17T07:51:27.434Z,29.40
2018-10-17T07:52:27.963Z,31.20
2018-10-17T07:53:27.755Z,29.00
2018-10-17T07:54:28.007Z,29.40
2018-10-17T07:55:28.293Z,28.50
2018-10-17T07:56:28.588Z,31.30
2018-10-17T07:57:28.879Z,26.30
2018-10-17T07:58:29.154Z,29.90
2018-10-17T07:59:29.590Z,28.40
2018-10-17T08:00:30.130Z,28.70
2018-10-17T08:01:30.229Z,28.50
2018-10-17T08:02:30.880Z,29.10
2018-10-17T08:03:30.715Z,32.50
2018-10-17T08:04:31.061Z,29.90
2018-10-17T08:05:31.411Z,30.70
2018-10-17T08:06:31.695Z,28.40
2018-10-17T08:07:31.982Z,29.90
2018-10-17T08:08:32.284Z,30.30
2018-10-17T08:09:32.563Z,29.00
2018-10-17T08:10:32.846Z,29.20
2018-10-17T08:11:33.438Z,28.30
2018-10-17T08:12:33.770Z,30.70
2018-10-17T08:13:33.922Z,29.80
2018-10-17T08:14:34.043Z,29.90
2018-10-17T08:15:34.178Z,30.90
2018-10-17T08:16:34.341Z,32.30
2018-10-17T08:17:34.636Z,30.50
2018-10-17T08:18:34.958Z,31.20
2018-10-17T08:19:35.121Z,30.30
2018-10-17T08:20:35.276Z,29.00
2018-10-17T08:21:35.492Z,31.90
2018-10-17T08:22:35.597Z,33.40
2018-10-17T08:23:36.018Z,30.40
2018-10-17T08:24:36.213Z,29.10
2018-10-17T08:25:36.283Z,31.20
2018-10-17T08:26:36.363Z,30.00
2018-10-17T08:27:36.565Z,32.10
2018-10-17T08:28:36.506Z,28.90
2018-10-17T08:29:36.569Z,28.90
2018-10-17T08:30:36.677Z,30.60
2018-10-17T08:31:36.845Z,29.50
2018-10-17T08:32:36.588Z,29.90
2018-10-17T08:33:37.132Z,30.50
2018-10-17T08:34:37.220Z,29.10
2018-10-17T08:35:37.477Z,29.30
2018-10-17T08:36:37.740Z,30.30
2018-10-17T08:37:38.046Z,29.60
2018-10-17T08:38:37.612Z,31.80
2018-10-17T08:39:37.694Z,29.40
2018-10-17T08:40:37.757Z,29.80
2018-10-17T08:41:37.733Z,29.60
2018-10-17T08:42:38.294Z,31.00
2018-10-17T08:43:38.381Z,29.70
2018-10-17T08:44:38.116Z,29.40
2018-10-17T08:45:38.681Z,29.30
2018-10-17T08:46:38.781Z,30.50
2018-10-17T08:47:38.872Z,28.80
2018-10-17T08:48:38.849Z,30.50
2018-10-17T08:49:39.613Z,29.60
2018-10-17T08:50:39.789Z,30.00
2018-10-17T08:51:39.943Z,28.00
2018-10-17T08:52:39.943Z,29.40
2018-10-17T08:53:40.228Z,27.60
2018-10-17T08:54:40.590Z,29.50
2018-10-17T08:55:40.868Z,30.70
2018-10-17T08:56:41.148Z,35.50
2018-10-17T08:57:41.442Z,31.80
2018-10-17T08:58:41.745Z,27.70
2018-10-17T08:59:42.246Z,30.90
2018-10-17T09:00:42.037Z,31.40
2018-10-17T09:01:42.424Z,30.20
2018-10-17T09:02:42.689Z,30.40
2018-10-17T09:03:42.982Z,27.90
2018-10-17T09:04:43.251Z,29.30
2018-10-17T09:05:43.576Z,29.90
2018-10-17T09:06:43.877Z,28.90
2018-10-17T09:07:44.171Z,27.30
2018-10-17T09:08:44.428Z,27.30
2018-10-17T09:09:44.834Z,32.40
2018-10-17T09:10:45.110Z,34.40
2018-10-17T09:11:45.376Z,27.20
2018-10-17T09:12:45.952Z,28.40
2018-10-17T09:13:45.736Z,31.60
2018-10-17T09:14:46.001Z,29.60
2018-10-17T09:15:46.278Z,27.40
2018-10-17T09:16:46.695Z,27.70
2018-10-17T09:17:46.866Z,29.00
2018-10-17T09:18:47.290Z,27.40
2018-10-17T09:19:47.874Z,26.90
2018-10-17T09:20:48.374Z,28.30
2018-10-17T09:21:48.815Z,28.70
2018-10-17T09:22:48.747Z,27.60
2018-10-17T09:23:48.875Z,26.90
2018-10-17T09:24:49.067Z,26.20
2018-10-17T09:25:49.253Z,26.20
2018-10-17T09:26:49.466Z,25.70
2018-10-17T09:27:49.618Z,27.80
2018-10-17T09:28:49.767Z,27.30
2018-10-17T09:29:49.929Z,26.70
2018-10-17T09:30:50.137Z,24.80
2018-10-17T09:31:50.257Z,26.50
2018-10-17T09:32:50.389Z,25.20
2018-10-17T09:33:50.531Z,24.40
2018-10-17T09:34:50.685Z,24.30
2018-10-17T09:35:50.999Z,23.80
2018-10-17T09:36:51.153Z,26.00
2018-10-17T09:37:51.250Z,25.60
2018-10-17T09:38:51.347Z,24.10
2018-10-17T09:39:51.668Z,24.60
2018-10-17T09:40:51.738Z,25.10
2018-10-17T09:41:51.918Z,25.80
2018-10-17T09:42:52.026Z,25.00
2018-10-17T09:43:52.133Z,27.10
2018-10-17T09:44:52.219Z,32.60
2018-10-17T09:45:52.526Z,25.00
2018-10-17T09:46:52.551Z,26.50
2018-10-17T09:47:52.653Z,27.40
2018-10-17T09:48:52.724Z,27.10
2018-10-17T09:49:52.783Z,27.20
2018-10-17T09:50:52.884Z,29.60
2018-10-17T09:51:52.716Z,27.20
2018-10-17T09:52:53.281Z,26.80
2018-10-17T09:53:53.417Z,28.00
2018-10-17T09:54:53.434Z,27.10
2018-10-17T09:55:53.526Z,27.00
2018-10-17T09:56:53.592Z,29.10
2018-10-17T09:57:53.801Z,28.80
2018-10-17T09:58:53.976Z,27.40
2018-10-17T09:59:54.059Z,27.70
2018-10-17T10:00:54.077Z,30.10
2018-10-17T10:01:54.088Z,28.00
2018-10-17T10:02:54.677Z,26.50
2018-10-17T10:03:54.584Z,31.70
2018-10-17T10:04:54.985Z,27.30
2018-10-17T10:05:55.275Z,27.70
2018-10-17T10:06:55.597Z,28.70
2018-10-17T10:07:55.879Z,27.10
2018-10-17T10:08:56.164Z,27.30
2018-10-17T10:09:56.478Z,27.10
2018-10-17T10:10:56.787Z,28.30
2018-10-17T10:11:57.018Z,26.80
2018-10-17T10:12:57.548Z,26.60
2018-10-17T10:13:57.438Z,26.20
2018-10-17T10:14:57.894Z,27.10
2018-10-17T10:15:58.183Z,27.30
2018-10-17T10:16:58.468Z,27.70
2018-10-17T10:17:58.760Z,29.20
2018-10-17T10:18:59.038Z,27.50
2018-10-17T10:19:59.497Z,26.40
2018-10-17T10:20:59.794Z,26.60
2018-10-17T10:22:00.226Z,27.20
2018-10-17T10:23:00.858Z,29.50
2018-10-17T10:24:00.605Z,25.70
2018-10-17T10:25:01.158Z,28.10
2018-10-17T10:26:01.348Z,25.80
2018-10-17T10:27:01.898Z,27.40
2018-10-17T10:28:01.765Z,26.60
2018-10-17T10:29:02.188Z,26.90
2018-10-17T10:30:02.903Z,25.90
2018-10-17T10:31:02.809Z,25.90
2018-10-17T10:32:03.440Z,28.80
2018-10-17T10:33:03.562Z,25.90
2018-10-17T10:34:03.884Z,27.10
2018-10-17T10:35:03.962Z,26.80
2018-10-17T10:36:04.259Z,26.80
2018-10-17T10:37:04.365Z,27.90
2018-10-17T10:38:04.500Z,27.60
2018-10-17T10:39:04.684Z,25.90
2018-10-17T10:40:04.805Z,25.10
2018-10-17T10:41:04.885Z,26.70
2018-10-17T10:42:05.190Z,25.20
2018-10-17T10:43:05.255Z,25.40
2018-10-17T10:44:05.552Z,27.00
2018-10-17T10:45:05.666Z,24.00
2018-10-17T10:46:05.821Z,25.90
2018-10-17T10:47:06.439Z,25.90
2018-10-17T10:48:06.581Z,25.10
2018-10-17T10:49:06.756Z,26.90
2018-10-17T10:50:06.886Z,24.60
2018-10-17T10:51:07.052Z,23.60
2018-10-17T10:52:07.210Z,26.40
2018-10-17T10:53:07.451Z,23.80
2018-10-17T10:54:07.383Z,22.70
2018-10-17T10:55:07.430Z,22.30
2018-10-17T10:56:07.605Z,24.70
2018-10-17T10:57:07.668Z,26.90
2018-10-17T10:58:07.854Z,23.80
2018-10-17T10:59:07.774Z,27.60
2018-10-17T11:00:07.810Z,22.00
2018-10-17T11:01:07.827Z,22.40
2018-10-17T11:02:07.961Z,22.00
2018-10-17T11:03:07.890Z,21.30
2018-10-17T11:04:08.248Z,22.70
2018-10-17T11:05:09.066Z,21.60
2018-10-17T11:06:09.032Z,21.70
2018-10-17T11:07:09.102Z,21.30
2018-10-17T11:08:09.191Z,21.80
2018-10-17T11:09:09.202Z,20.30
2018-10-17T11:10:09.202Z,21.50
2018-10-17T11:11:09.656Z,20.80
2018-10-17T11:12:09.919Z,21.10
2018-10-17T11:13:10.210Z,20.70
2018-10-17T11:14:10.840Z,20.70
2018-10-17T11:15:10.753Z,18.80
2018-10-17T11:16:11.342Z,20.20
2018-10-17T11:17:11.264Z,19.90
2018-10-17T11:18:11.542Z,18.70
2018-10-17T11:19:11.943Z,20.20
2018-10-17T11:20:12.235Z,20.90
2018-10-17T11:21:12.657Z,19.90
2018-10-17T11:22:12.834Z,19.10
2018-10-17T11:23:13.347Z,19.20
2018-10-17T11:24:13.231Z,18.90
2018-10-17T11:25:13.758Z,18.40
2018-10-17T11:26:13.525Z,19.00
2018-10-17T11:27:13.972Z,19.30
2018-10-17T11:28:14.082Z,17.50
2018-10-17T11:29:14.659Z,19.50
2018-10-17T11:30:14.994Z,19.00
2018-10-17T11:31:15.311Z,18.30
2018-10-17T11:32:15.519Z,19.50
2018-10-17T11:33:16.181Z,19.50
2018-10-17T11:34:15.819Z,19.40
2018-10-17T11:35:16.545Z,18.90
2018-10-17T11:36:16.218Z,17.90
2018-10-17T11:37:16.498Z,18.50
2018-10-17T11:38:16.863Z,18.40
2018-10-17T11:39:17.556Z,20.70
2018-10-17T11:40:17.293Z,18.30
2018-10-17T11:41:17.685Z,18.10
2018-10-17T11:42:17.847Z,19.80
2018-10-17T11:43:18.377Z,17.80
2018-10-17T11:44:18.505Z,17.60
2018-10-17T11:45:18.680Z,17.70
2018-10-17T11:46:18.780Z,17.00
2018-10-17T11:47:18.979Z,17.20
2018-10-17T11:48:19.135Z,17.70
2018-10-17T11:49:19.254Z,17.00
2018-10-17T11:50:19.341Z,16.60
2018-10-17T11:51:19.621Z,16.70
2018-10-17T11:52:19.599Z,17.10
2018-10-17T11:53:19.737Z,18.00
2018-10-17T11:54:19.895Z,17.30
2018-10-17T11:55:20.172Z,16.30
2018-10-17T11:56:20.358Z,17.20
2018-10-17T11:57:20.533Z,16.20
2018-10-17T11:58:20.678Z,16.30
2018-10-17T11:59:21.019Z,16.80
2018-10-17T12:00:21.013Z,16.90
2018-10-17T12:01:21.139Z,15.70
2018-10-17T12:02:21.242Z,16.10
2018-10-17T12:03:21.433Z,17.20
2018-10-17T12:04:22.148Z,15.70
2018-10-17T12:05:22.239Z,15.60
2018-10-17T12:06:21.667Z,16.50
2018-10-17T12:07:21.772Z,16.20
2018-10-17T12:08:21.899Z,22.90
2018-10-17T12:09:22.018Z,16.50
2018-10-17T12:10:22.121Z,16.60
2018-10-17T12:11:22.241Z,16.90
2018-10-17T12:12:22.307Z,14.70
2018-10-17T12:13:22.360Z,18.10
2018-10-17T12:14:22.662Z,16.30
2018-10-17T12:15:22.729Z,17.10
2018-10-17T12:16:22.509Z,16.60
2018-10-17T12:17:23.068Z,16.60
2018-10-17T12:18:23.128Z,15.10
2018-10-17T12:19:23.219Z,16.20
2018-10-17T12:20:23.281Z,16.00
2018-10-17T12:21:23.409Z,15.60
2018-10-17T12:22:23.452Z,15.50
2018-10-17T12:23:23.514Z,16.50
2018-10-17T12:24:23.748Z,17.50
2018-10-17T12:25:23.836Z,18.00
2018-10-17T12:26:23.899Z,15.90
2018-10-17T12:27:23.930Z,16.40
2018-10-17T12:28:24.039Z,15.30
2018-10-17T12:29:24.019Z,15.90
2018-10-17T12:30:24.176Z,16.60
2018-10-17T12:31:24.177Z,16.50
2018-10-17T12:32:24.299Z,15.00
2018-10-17T12:33:24.104Z,16.10
2018-10-17T12:34:24.516Z,16.40
2018-10-17T12:35:24.839Z,17.40
2018-10-17T12:36:25.111Z,16.50
2018-10-17T12:37:25.389Z,20.20
2018-10-17T12:38:25.663Z,19.50
2018-10-17T12:39:26.074Z,16.40
2018-10-17T12:40:26.563Z,16.70
2018-10-17T12:41:26.777Z,17.30
2018-10-17T12:42:27.052Z,15.90
2018-10-17T12:43:27.463Z,17.80
2018-10-17T12:44:27.726Z,16.30
2018-10-17T12:45:28.041Z,19.50
2018-10-17T12:46:28.260Z,17.60
2018-10-17T12:47:28.566Z,17.00
2018-10-17T12:48:28.923Z,17.70
2018-10-17T12:49:29.150Z,17.90
2018-10-17T12:50:29.414Z,15.70
2018-10-17T12:51:29.674Z,16.50
2018-10-17T12:52:29.812Z,17.10
2018-10-17T12:53:30.010Z,16.00
2018-10-17T12:54:30.239Z,15.70
2018-10-17T12:55:30.497Z,16.10
2018-10-17T12:56:30.758Z,16.00
2018-10-17T12:57:31.044Z,15.70
2018-10-17T12:58:31.395Z,16.30
2018-10-17T12:59:31.701Z,17.00
2018-10-17T13:00:31.992Z,14.80